sensor_id;sensor_type;location;lat;lon;timestamp;pressure;altitude;pressure_sealevel;temperature
45850;BMP180;10739;52.198;20.908;2024-01-30T00:00:54;102028.00;;;3.80
45850;BMP180;10739;52.198;20.908;2024-01-30T00:03:20;102022.00;;;3.70
45850;BMP180;10739;52.198;20.908;2024-01-30T00:05:47;102021.00;;;3.60
45850;BMP180;10739;52.198;20.908;2024-01-30T00:08:15;102011.00;;;3.90
45850;BMP180;10739;52.198;20.908;2024-01-30T00:10:43;102012.00;;;3.70
45850;BMP180;10739;52.198;20.908;2024-01-30T00:13:09;102003.00;;;3.50
45850;BMP180;10739;52.198;20.908;2024-01-30T00:15:35;102005.00;;;3.70
45850;BMP180;10739;52.198;20.908;2024-01-30T00:18:02;102006.00;;;3.70
45850;BMP180;10739;52.198;20.908;2024-01-30T00:20:28;102005.00;;;3.60
45850;BMP180;10739;52.198;20.908;2024-01-30T00:22:54;102004.00;;;3.40
45850;BMP180;10739;52.198;20.908;2024-01-30T00:25:20;101999.00;;;3.60
45850;BMP180;10739;52.198;20.908;2024-01-30T00:27:47;101989.00;;;3.60
45850;BMP180;10739;52.198;20.908;2024-01-30T00:30:13;102002.00;;;3.50
45850;BMP180;10739;52.198;20.908;2024-01-30T00:32:41;101999.00;;;3.50
45850;BMP180;10739;52.198;20.908;2024-01-30T00:35:07;101992.00;;;3.50
45850;BMP180;10739;52.198;20.908;2024-01-30T00:37:35;101994.00;;;3.60
45850;BMP180;10739;52.198;20.908;2024-01-30T00:40:02;101994.00;;;3.60
45850;BMP180;10739;52.198;20.908;2024-01-30T00:42:29;101996.00;;;3.60
45850;BMP180;10739;52.198;20.908;2024-01-30T00:45:01;102000.00;;;3.90
45850;BMP180;10739;52.198;20.908;2024-01-30T00:47:35;102004.00;;;3.90
45850;BMP180;10739;52.198;20.908;2024-01-30T00:50:02;102002.00;;;3.60
45850;BMP180;10739;52.198;20.908;2024-01-30T00:52:28;101998.00;;;3.50
45850;BMP180;10739;52.198;20.908;2024-01-30T00:54:54;102002.00;;;3.80
45850;BMP180;10739;52.198;20.908;2024-01-30T00:57:21;102002.00;;;3.40
45850;BMP180;10739;52.198;20.908;2024-01-30T00:59:47;101992.00;;;3.60
45850;BMP180;10739;52.198;20.908;2024-01-30T01:02:13;102006.00;;;3.40
45850;BMP180;10739;52.198;20.908;2024-01-30T01:04:41;101990.00;;;3.20
45850;BMP180;10739;52.198;20.908;2024-01-30T01:07:07;101999.00;;;3.20
45850;BMP180;10739;52.198;20.908;2024-01-30T01:09:33;101993.00;;;3.40
45850;BMP180;10739;52.198;20.908;2024-01-30T01:11:59;102009.00;;;3.30
45850;BMP180;10739;52.198;20.908;2024-01-30T01:14:26;101999.00;;;3.40
45850;BMP180;10739;52.198;20.908;2024-01-30T01:16:52;101997.00;;;3.60
45850;BMP180;10739;52.198;20.908;2024-01-30T01:19:18;101996.00;;;3.70
45850;BMP180;10739;52.198;20.908;2024-01-30T01:21:44;101992.00;;;3.60
45850;BMP180;10739;52.198;20.908;2024-01-30T01:24:11;101994.00;;;3.70
45850;BMP180;10739;52.198;20.908;2024-01-30T01:26:37;101992.00;;;3.70
45850;BMP180;10739;52.198;20.908;2024-01-30T01:29:03;101997.00;;;3.90
45850;BMP180;10739;52.198;20.908;2024-01-30T01:31:38;101994.00;;;4.20
45850;BMP180;10739;52.198;20.908;2024-01-30T01:34:12;101996.00;;;4.20
45850;BMP180;10739;52.198;20.908;2024-01-30T01:36:39;102003.00;;;4.40
45850;BMP180;10739;52.198;20.908;2024-01-30T01:39:06;101999.00;;;4.50
45850;BMP180;10739;52.198;20.908;2024-01-30T01:41:33;101995.00;;;4.30
45850;BMP180;10739;52.198;20.908;2024-01-30T01:44:00;101988.00;;;4.00
45850;BMP180;10739;52.198;20.908;2024-01-30T01:46:30;101977.00;;;4.10
45850;BMP180;10739;52.198;20.908;2024-01-30T01:49:00;101975.00;;;4.10
45850;BMP180;10739;52.198;20.908;2024-01-30T01:51:29;101971.00;;;4.10
45850;BMP180;10739;52.198;20.908;2024-01-30T01:54:00;101980.00;;;3.80
45850;BMP180;10739;52.198;20.908;2024-01-30T01:56:29;101966.00;;;3.70
45850;BMP180;10739;52.198;20.908;2024-01-30T01:59:04;101962.00;;;3.60
45850;BMP180;10739;52.198;20.908;2024-01-30T02:01:32;101965.00;;;3.60
45850;BMP180;10739;52.198;20.908;2024-01-30T02:04:00;101951.00;;;3.50
45850;BMP180;10739;52.198;20.908;2024-01-30T02:06:28;101961.00;;;3.30
45850;BMP180;10739;52.198;20.908;2024-01-30T02:08:55;101957.00;;;3.50
45850;BMP180;10739;52.198;20.908;2024-01-30T02:11:23;101954.00;;;3.60
45850;BMP180;10739;52.198;20.908;2024-01-30T02:13:50;101943.00;;;3.40
45850;BMP180;10739;52.198;20.908;2024-01-30T02:16:16;101951.00;;;3.40
45850;BMP180;10739;52.198;20.908;2024-01-30T02:18:46;101950.00;;;3.30
45850;BMP180;10739;52.198;20.908;2024-01-30T02:21:18;101945.00;;;3.40
45850;BMP180;10739;52.198;20.908;2024-01-30T02:23:47;101940.00;;;3.40
45850;BMP180;10739;52.198;20.908;2024-01-30T02:26:14;101943.00;;;3.40
45850;BMP180;10739;52.198;20.908;2024-01-30T02:28:40;101946.00;;;3.70
45850;BMP180;10739;52.198;20.908;2024-01-30T02:31:07;101953.00;;;3.80
45850;BMP180;10739;52.198;20.908;2024-01-30T02:33:33;101952.00;;;3.70
45850;BMP180;10739;52.198;20.908;2024-01-30T02:36:00;101955.00;;;3.80
45850;BMP180;10739;52.198;20.908;2024-01-30T02:38:26;101959.00;;;3.80
45850;BMP180;10739;52.198;20.908;2024-01-30T02:40:53;101957.00;;;3.90
45850;BMP180;10739;52.198;20.908;2024-01-30T02:43:19;101964.00;;;3.40
45850;BMP180;10739;52.198;20.908;2024-01-30T02:45:45;101961.00;;;3.30
45850;BMP180;10739;52.198;20.908;2024-01-30T02:48:12;101952.00;;;3.40
45850;BMP180;10739;52.198;20.908;2024-01-30T02:50:39;101964.00;;;3.30
45850;BMP180;10739;52.198;20.908;2024-01-30T02:53:05;101957.00;;;3.50
45850;BMP180;10739;52.198;20.908;2024-01-30T02:55:33;101961.00;;;3.30
45850;BMP180;10739;52.198;20.908;2024-01-30T02:57:59;101959.00;;;3.50
45850;BMP180;10739;52.198;20.908;2024-01-30T03:00:25;101959.00;;;3.20
45850;BMP180;10739;52.198;20.908;2024-01-30T03:02:51;101961.00;;;3.30
45850;BMP180;10739;52.198;20.908;2024-01-30T03:05:18;101953.00;;;3.40
45850;BMP180;10739;52.198;20.908;2024-01-30T03:07:44;101952.00;;;3.30
45850;BMP180;10739;52.198;20.908;2024-01-30T03:10:10;101955.00;;;3.10
45850;BMP180;10739;52.198;20.908;2024-01-30T03:12:36;101951.00;;;3.10
45850;BMP180;10739;52.198;20.908;2024-01-30T03:15:03;101953.00;;;3.00
45850;BMP180;10739;52.198;20.908;2024-01-30T03:17:29;101956.00;;;3.30
45850;BMP180;10739;52.198;20.908;2024-01-30T03:19:55;101946.00;;;3.50
45850;BMP180;10739;52.198;20.908;2024-01-30T03:22:22;101955.00;;;3.50
45850;BMP180;10739;52.198;20.908;2024-01-30T03:24:48;101957.00;;;3.60
45850;BMP180;10739;52.198;20.908;2024-01-30T03:27:14;101953.00;;;3.40
45850;BMP180;10739;52.198;20.908;2024-01-30T03:29:40;101948.00;;;3.20
45850;BMP180;10739;52.198;20.908;2024-01-30T03:32:07;101951.00;;;3.40
45850;BMP180;10739;52.198;20.908;2024-01-30T03:34:33;101958.00;;;3.10
45850;BMP180;10739;52.198;20.908;2024-01-30T03:36:59;101951.00;;;3.40
45850;BMP180;10739;52.198;20.908;2024-01-30T03:39:26;101952.00;;;3.20
45850;BMP180;10739;52.198;20.908;2024-01-30T03:41:53;101953.00;;;3.60
45850;BMP180;10739;52.198;20.908;2024-01-30T03:44:19;101956.00;;;3.20
45850;BMP180;10739;52.198;20.908;2024-01-30T03:46:46;101947.00;;;3.20
45850;BMP180;10739;52.198;20.908;2024-01-30T03:49:12;101953.00;;;2.90
45850;BMP180;10739;52.198;20.908;2024-01-30T03:51:38;101950.00;;;3.00
45850;BMP180;10739;52.198;20.908;2024-01-30T03:54:05;101942.00;;;2.90
45850;BMP180;10739;52.198;20.908;2024-01-30T03:56:32;101936.00;;;2.80
45850;BMP180;10739;52.198;20.908;2024-01-30T03:58:58;101935.00;;;3.10
45850;BMP180;10739;52.198;20.908;2024-01-30T04:01:26;101937.00;;;3.20
45850;BMP180;10739;52.198;20.908;2024-01-30T04:03:52;101945.00;;;3.10
45850;BMP180;10739;52.198;20.908;2024-01-30T04:06:19;101940.00;;;3.10
45850;BMP180;10739;52.198;20.908;2024-01-30T04:08:45;101931.00;;;3.10
45850;BMP180;10739;52.198;20.908;2024-01-30T04:11:11;101939.00;;;2.80
45850;BMP180;10739;52.198;20.908;2024-01-30T04:13:38;101933.00;;;3.10
45850;BMP180;10739;52.198;20.908;2024-01-30T04:16:05;101939.00;;;3.00
45850;BMP180;10739;52.198;20.908;2024-01-30T04:18:31;101938.00;;;3.00
45850;BMP180;10739;52.198;20.908;2024-01-30T04:20:58;101936.00;;;2.90
45850;BMP180;10739;52.198;20.908;2024-01-30T04:23:25;101938.00;;;3.10
45850;BMP180;10739;52.198;20.908;2024-01-30T04:25:51;101939.00;;;2.80
45850;BMP180;10739;52.198;20.908;2024-01-30T04:28:18;101939.00;;;3.00
45850;BMP180;10739;52.198;20.908;2024-01-30T04:30:44;101947.00;;;3.00
45850;BMP180;10739;52.198;20.908;2024-01-30T04:33:10;101942.00;;;3.10
45850;BMP180;10739;52.198;20.908;2024-01-30T04:35:37;101934.00;;;3.10
45850;BMP180;10739;52.198;20.908;2024-01-30T04:38:04;101944.00;;;3.10
45850;BMP180;10739;52.198;20.908;2024-01-30T04:40:30;101950.00;;;3.00
45850;BMP180;10739;52.198;20.908;2024-01-30T04:42:56;101937.00;;;3.00
45850;BMP180;10739;52.198;20.908;2024-01-30T04:45:22;101950.00;;;3.10
45850;BMP180;10739;52.198;20.908;2024-01-30T04:47:49;101929.00;;;3.00
45850;BMP180;10739;52.198;20.908;2024-01-30T04:50:15;101937.00;;;3.00
45850;BMP180;10739;52.198;20.908;2024-01-30T04:52:41;101934.00;;;3.00
45850;BMP180;10739;52.198;20.908;2024-01-30T04:55:08;101929.00;;;3.10
45850;BMP180;10739;52.198;20.908;2024-01-30T04:57:34;101932.00;;;3.00
45850;BMP180;10739;52.198;20.908;2024-01-30T05:00:00;101930.00;;;2.90
45850;BMP180;10739;52.198;20.908;2024-01-30T05:02:27;101925.00;;;3.00
45850;BMP180;10739;52.198;20.908;2024-01-30T05:04:54;101926.00;;;3.00
45850;BMP180;10739;52.198;20.908;2024-01-30T05:07:20;101935.00;;;3.10
45850;BMP180;10739;52.198;20.908;2024-01-30T05:09:46;101931.00;;;3.10
45850;BMP180;10739;52.198;20.908;2024-01-30T05:12:13;101936.00;;;2.90
45850;BMP180;10739;52.198;20.908;2024-01-30T05:14:39;101929.00;;;2.90
45850;BMP180;10739;52.198;20.908;2024-01-30T05:17:05;101932.00;;;2.90
45850;BMP180;10739;52.198;20.908;2024-01-30T05:19:31;101935.00;;;2.80
45850;BMP180;10739;52.198;20.908;2024-01-30T05:21:58;101931.00;;;2.90
45850;BMP180;10739;52.198;20.908;2024-01-30T05:24:24;101932.00;;;3.00
45850;BMP180;10739;52.198;20.908;2024-01-30T05:26:50;101924.00;;;3.10
45850;BMP180;10739;52.198;20.908;2024-01-30T05:29:17;101927.00;;;3.00
45850;BMP180;10739;52.198;20.908;2024-01-30T05:31:43;101927.00;;;3.00
45850;BMP180;10739;52.198;20.908;2024-01-30T05:34:09;101929.00;;;3.10
45850;BMP180;10739;52.198;20.908;2024-01-30T05:36:35;101936.00;;;3.00
45850;BMP180;10739;52.198;20.908;2024-01-30T05:39:02;101929.00;;;3.00
45850;BMP180;10739;52.198;20.908;2024-01-30T05:41:28;101934.00;;;3.10
45850;BMP180;10739;52.198;20.908;2024-01-30T05:43:54;101921.00;;;3.10
45850;BMP180;10739;52.198;20.908;2024-01-30T05:46:21;101934.00;;;3.20
45850;BMP180;10739;52.198;20.908;2024-01-30T05:48:47;101939.00;;;3.00
45850;BMP180;10739;52.198;20.908;2024-01-30T05:51:14;101936.00;;;3.00
45850;BMP180;10739;52.198;20.908;2024-01-30T05:53:40;101937.00;;;3.00
45850;BMP180;10739;52.198;20.908;2024-01-30T05:56:07;101936.00;;;3.20
45850;BMP180;10739;52.198;20.908;2024-01-30T05:58:33;101923.00;;;3.30
45850;BMP180;10739;52.198;20.908;2024-01-30T06:00:59;101925.00;;;3.40
45850;BMP180;10739;52.198;20.908;2024-01-30T06:03:25;101931.00;;;3.50
45850;BMP180;10739;52.198;20.908;2024-01-30T06:05:52;101933.00;;;3.50
45850;BMP180;10739;52.198;20.908;2024-01-30T06:08:18;101929.00;;;3.40
45850;BMP180;10739;52.198;20.908;2024-01-30T06:10:45;101934.00;;;3.50
45850;BMP180;10739;52.198;20.908;2024-01-30T06:13:11;101928.00;;;3.50
45850;BMP180;10739;52.198;20.908;2024-01-30T06:15:37;101928.00;;;3.30
45850;BMP180;10739;52.198;20.908;2024-01-30T06:18:04;101925.00;;;3.30
45850;BMP180;10739;52.198;20.908;2024-01-30T06:20:30;101924.00;;;3.30
45850;BMP180;10739;52.198;20.908;2024-01-30T06:22:56;101917.00;;;3.40
45850;BMP180;10739;52.198;20.908;2024-01-30T06:25:23;101914.00;;;3.30
45850;BMP180;10739;52.198;20.908;2024-01-30T06:27:49;101930.00;;;3.40
45850;BMP180;10739;52.198;20.908;2024-01-30T06:30:16;101943.00;;;2.90
45850;BMP180;10739;52.198;20.908;2024-01-30T06:32:42;101938.00;;;2.90
45850;BMP180;10739;52.198;20.908;2024-01-30T06:35:09;101933.00;;;3.20
45850;BMP180;10739;52.198;20.908;2024-01-30T06:37:36;101938.00;;;3.00
45850;BMP180;10739;52.198;20.908;2024-01-30T06:40:03;101942.00;;;3.20
45850;BMP180;10739;52.198;20.908;2024-01-30T06:42:31;101935.00;;;3.20
45850;BMP180;10739;52.198;20.908;2024-01-30T06:44:57;101937.00;;;3.10
45850;BMP180;10739;52.198;20.908;2024-01-30T06:47:24;101941.00;;;3.20
45850;BMP180;10739;52.198;20.908;2024-01-30T06:49:50;101934.00;;;3.20
45850;BMP180;10739;52.198;20.908;2024-01-30T06:52:16;101934.00;;;3.50
45850;BMP180;10739;52.198;20.908;2024-01-30T06:54:42;101940.00;;;3.40
45850;BMP180;10739;52.198;20.908;2024-01-30T06:57:09;101937.00;;;3.00
45850;BMP180;10739;52.198;20.908;2024-01-30T06:59:38;101934.00;;;3.30
45850;BMP180;10739;52.198;20.908;2024-01-30T07:02:10;101938.00;;;3.50
45850;BMP180;10739;52.198;20.908;2024-01-30T07:04:36;101939.00;;;3.40
45850;BMP180;10739;52.198;20.908;2024-01-30T07:07:04;101938.00;;;3.30
45850;BMP180;10739;52.198;20.908;2024-01-30T07:09:31;101941.00;;;3.40
45850;BMP180;10739;52.198;20.908;2024-01-30T07:11:57;101940.00;;;3.30
45850;BMP180;10739;52.198;20.908;2024-01-30T07:14:26;101938.00;;;3.40
45850;BMP180;10739;52.198;20.908;2024-01-30T07:16:52;101937.00;;;3.50
45850;BMP180;10739;52.198;20.908;2024-01-30T07:19:19;101942.00;;;3.50
45850;BMP180;10739;52.198;20.908;2024-01-30T07:21:45;101939.00;;;3.60
45850;BMP180;10739;52.198;20.908;2024-01-30T07:24:12;101948.00;;;3.60
45850;BMP180;10739;52.198;20.908;2024-01-30T07:26:38;101945.00;;;3.70
45850;BMP180;10739;52.198;20.908;2024-01-30T07:29:04;101950.00;;;3.60
45850;BMP180;10739;52.198;20.908;2024-01-30T07:31:30;101933.00;;;3.70
45850;BMP180;10739;52.198;20.908;2024-01-30T07:33:57;101937.00;;;4.00
45850;BMP180;10739;52.198;20.908;2024-01-30T07:36:23;101940.00;;;4.00
45850;BMP180;10739;52.198;20.908;2024-01-30T07:38:49;101951.00;;;4.20
45850;BMP180;10739;52.198;20.908;2024-01-30T07:41:15;101942.00;;;4.40
45850;BMP180;10739;52.198;20.908;2024-01-30T07:43:43;101938.00;;;4.30
45850;BMP180;10739;52.198;20.908;2024-01-30T07:46:10;101932.00;;;4.50
45850;BMP180;10739;52.198;20.908;2024-01-30T07:48:36;101942.00;;;4.60
45850;BMP180;10739;52.198;20.908;2024-01-30T07:51:03;101935.00;;;4.50
45850;BMP180;10739;52.198;20.908;2024-01-30T07:53:30;101937.00;;;4.80
45850;BMP180;10739;52.198;20.908;2024-01-30T07:55:55;101947.00;;;4.90
45850;BMP180;10739;52.198;20.908;2024-01-30T07:58:21;101928.00;;;4.60
45850;BMP180;10739;52.198;20.908;2024-01-30T08:00:49;101937.00;;;4.80
45850;BMP180;10739;52.198;20.908;2024-01-30T08:03:17;101926.00;;;5.10
45850;BMP180;10739;52.198;20.908;2024-01-30T08:05:44;101927.00;;;5.30
45850;BMP180;10739;52.198;20.908;2024-01-30T08:08:10;101924.00;;;5.50
45850;BMP180;10739;52.198;20.908;2024-01-30T08:10:36;101934.00;;;5.40
45850;BMP180;10739;52.198;20.908;2024-01-30T08:13:02;101924.00;;;5.40
45850;BMP180;10739;52.198;20.908;2024-01-30T08:15:28;101924.00;;;5.50
45850;BMP180;10739;52.198;20.908;2024-01-30T08:17:55;101923.00;;;5.80
45850;BMP180;10739;52.198;20.908;2024-01-30T08:20:25;101922.00;;;6.10
45850;BMP180;10739;52.198;20.908;2024-01-30T08:22:51;101928.00;;;6.40
45850;BMP180;10739;52.198;20.908;2024-01-30T08:25:17;101927.00;;;6.20
45850;BMP180;10739;52.198;20.908;2024-01-30T08:27:44;101920.00;;;5.90
45850;BMP180;10739;52.198;20.908;2024-01-30T08:30:11;101911.00;;;6.60
45850;BMP180;10739;52.198;20.908;2024-01-30T08:32:37;101917.00;;;6.70
45850;BMP180;10739;52.198;20.908;2024-01-30T08:35:04;101912.00;;;6.70
45850;BMP180;10739;52.198;20.908;2024-01-30T08:37:30;101910.00;;;6.60
45850;BMP180;10739;52.198;20.908;2024-01-30T08:39:56;101914.00;;;6.60
45850;BMP180;10739;52.198;20.908;2024-01-30T08:42:22;101906.00;;;6.50
45850;BMP180;10739;52.198;20.908;2024-01-30T08:44:49;101909.00;;;6.60
45850;BMP180;10739;52.198;20.908;2024-01-30T08:47:17;101914.00;;;7.20
45850;BMP180;10739;52.198;20.908;2024-01-30T08:49:44;101914.00;;;7.40
45850;BMP180;10739;52.198;20.908;2024-01-30T08:52:11;101911.00;;;8.00
45850;BMP180;10739;52.198;20.908;2024-01-30T08:54:37;101916.00;;;9.60
45850;BMP180;10739;52.198;20.908;2024-01-30T08:57:04;101912.00;;;10.30
45850;BMP180;10739;52.198;20.908;2024-01-30T08:59:30;101914.00;;;10.80
45850;BMP180;10739;52.198;20.908;2024-01-30T09:01:56;101912.00;;;11.00
45850;BMP180;10739;52.198;20.908;2024-01-30T09:04:24;101904.00;;;11.70
45850;BMP180;10739;52.198;20.908;2024-01-30T09:06:51;101904.00;;;12.00
45850;BMP180;10739;52.198;20.908;2024-01-30T09:09:17;101907.00;;;12.70
45850;BMP180;10739;52.198;20.908;2024-01-30T09:11:43;101906.00;;;12.20
45850;BMP180;10739;52.198;20.908;2024-01-30T09:14:10;101906.00;;;12.40
45850;BMP180;10739;52.198;20.908;2024-01-30T09:16:36;101902.00;;;12.50
45850;BMP180;10739;52.198;20.908;2024-01-30T09:19:02;101909.00;;;13.30
45850;BMP180;10739;52.198;20.908;2024-01-30T09:21:28;101908.00;;;13.60
45850;BMP180;10739;52.198;20.908;2024-01-30T09:24:01;101912.00;;;14.10
45850;BMP180;10739;52.198;20.908;2024-01-30T09:26:28;101900.00;;;13.20
45850;BMP180;10739;52.198;20.908;2024-01-30T09:28:55;101904.00;;;13.70
45850;BMP180;10739;52.198;20.908;2024-01-30T09:31:21;101900.00;;;13.90
45850;BMP180;10739;52.198;20.908;2024-01-30T09:33:47;101895.00;;;15.60
45850;BMP180;10739;52.198;20.908;2024-01-30T09:36:13;101893.00;;;14.40
45850;BMP180;10739;52.198;20.908;2024-01-30T09:38:44;101891.00;;;13.70
45850;BMP180;10739;52.198;20.908;2024-01-30T09:41:11;101901.00;;;12.20
45850;BMP180;10739;52.198;20.908;2024-01-30T09:43:39;101908.00;;;12.50
45850;BMP180;10739;52.198;20.908;2024-01-30T09:46:12;101906.00;;;10.80
45850;BMP180;10739;52.198;20.908;2024-01-30T09:48:41;101905.00;;;10.60
45850;BMP180;10739;52.198;20.908;2024-01-30T09:51:14;101905.00;;;9.80
45850;BMP180;10739;52.198;20.908;2024-01-30T09:53:42;101903.00;;;10.00
45850;BMP180;10739;52.198;20.908;2024-01-30T09:56:09;101899.00;;;9.00
45850;BMP180;10739;52.198;20.908;2024-01-30T09:58:35;101904.00;;;9.10
45850;BMP180;10739;52.198;20.908;2024-01-30T10:01:01;101905.00;;;9.30
45850;BMP180;10739;52.198;20.908;2024-01-30T10:03:28;101905.00;;;9.30
45850;BMP180;10739;52.198;20.908;2024-01-30T10:05:58;101897.00;;;9.40
45850;BMP180;10739;52.198;20.908;2024-01-30T10:08:26;101894.00;;;9.10
45850;BMP180;10739;52.198;20.908;2024-01-30T10:10:53;101898.00;;;9.20
45850;BMP180;10739;52.198;20.908;2024-01-30T10:13:19;101887.00;;;9.40
45850;BMP180;10739;52.198;20.908;2024-01-30T10:15:47;101884.00;;;9.50
45850;BMP180;10739;52.198;20.908;2024-01-30T10:18:13;101884.00;;;10.10
45850;BMP180;10739;52.198;20.908;2024-01-30T10:20:39;101877.00;;;9.40
45850;BMP180;10739;52.198;20.908;2024-01-30T10:23:06;101887.00;;;10.20
45850;BMP180;10739;52.198;20.908;2024-01-30T10:25:32;101880.00;;;9.80
45850;BMP180;10739;52.198;20.908;2024-01-30T10:27:59;101879.00;;;10.30
45850;BMP180;10739;52.198;20.908;2024-01-30T10:30:27;101875.00;;;9.50
45850;BMP180;10739;52.198;20.908;2024-01-30T10:32:53;101876.00;;;9.90
45850;BMP180;10739;52.198;20.908;2024-01-30T10:35:20;101864.00;;;10.00
45850;BMP180;10739;52.198;20.908;2024-01-30T10:37:49;101870.00;;;10.20
45850;BMP180;10739;52.198;20.908;2024-01-30T10:40:16;101859.00;;;10.00
45850;BMP180;10739;52.198;20.908;2024-01-30T10:42:46;101851.00;;;10.00
45850;BMP180;10739;52.198;20.908;2024-01-30T10:45:14;101850.00;;;10.00
45850;BMP180;10739;52.198;20.908;2024-01-30T10:47:53;101859.00;;;9.80
45850;BMP180;10739;52.198;20.908;2024-01-30T10:50:20;101854.00;;;9.70
45850;BMP180;10739;52.198;20.908;2024-01-30T10:52:47;101840.00;;;9.60
45850;BMP180;10739;52.198;20.908;2024-01-30T10:55:15;101845.00;;;10.20
45850;BMP180;10739;52.198;20.908;2024-01-30T10:57:42;101844.00;;;9.90
45850;BMP180;10739;52.198;20.908;2024-01-30T11:00:13;101848.00;;;10.20
45850;BMP180;10739;52.198;20.908;2024-01-30T11:02:46;101838.00;;;10.00
45850;BMP180;10739;52.198;20.908;2024-01-30T11:05:13;101829.00;;;10.10
45850;BMP180;10739;52.198;20.908;2024-01-30T11:07:41;101831.00;;;9.80
45850;BMP180;10739;52.198;20.908;2024-01-30T11:10:08;101829.00;;;9.70
45850;BMP180;10739;52.198;20.908;2024-01-30T11:12:40;101829.00;;;9.60
45850;BMP180;10739;52.198;20.908;2024-01-30T11:15:13;101827.00;;;10.10
45850;BMP180;10739;52.198;20.908;2024-01-30T11:22:50;101816.00;;;10.10
45850;BMP180;10739;52.198;20.908;2024-01-30T11:25:20;101806.00;;;10.30
45850;BMP180;10739;52.198;20.908;2024-01-30T11:27:50;101809.00;;;10.40
45850;BMP180;10739;52.198;20.908;2024-01-30T11:30:31;101809.00;;;10.50
45850;BMP180;10739;52.198;20.908;2024-01-30T11:33:12;101814.00;;;10.70
45850;BMP180;10739;52.198;20.908;2024-01-30T11:35:43;101816.00;;;10.30
45850;BMP180;10739;52.198;20.908;2024-01-30T11:38:19;101801.00;;;10.60
45850;BMP180;10739;52.198;20.908;2024-01-30T11:40:45;101800.00;;;10.70
45850;BMP180;10739;52.198;20.908;2024-01-30T11:43:11;101790.00;;;11.00
45850;BMP180;10739;52.198;20.908;2024-01-30T11:45:38;101796.00;;;10.40
45850;BMP180;10739;52.198;20.908;2024-01-30T11:48:05;101792.00;;;11.10
45850;BMP180;10739;52.198;20.908;2024-01-30T11:50:34;101791.00;;;10.80
45850;BMP180;10739;52.198;20.908;2024-01-30T11:53:01;101788.00;;;10.40
45850;BMP180;10739;52.198;20.908;2024-01-30T11:55:29;101786.00;;;10.80
45850;BMP180;10739;52.198;20.908;2024-01-30T11:57:57;101794.00;;;10.80
45850;BMP180;10739;52.198;20.908;2024-01-30T12:00:24;101785.00;;;11.20
45850;BMP180;10739;52.198;20.908;2024-01-30T12:02:52;101792.00;;;11.30
45850;BMP180;10739;52.198;20.908;2024-01-30T12:05:25;101792.00;;;11.10
45850;BMP180;10739;52.198;20.908;2024-01-30T12:07:52;101788.00;;;11.50
45850;BMP180;10739;52.198;20.908;2024-01-30T12:10:18;101779.00;;;10.80
45850;BMP180;10739;52.198;20.908;2024-01-30T12:12:50;101780.00;;;10.80
45850;BMP180;10739;52.198;20.908;2024-01-30T12:15:18;101783.00;;;10.90
45850;BMP180;10739;52.198;20.908;2024-01-30T12:17:44;101773.00;;;10.80
45850;BMP180;10739;52.198;20.908;2024-01-30T12:20:17;101778.00;;;10.70
45850;BMP180;10739;52.198;20.908;2024-01-30T12:22:46;101778.00;;;11.20
45850;BMP180;10739;52.198;20.908;2024-01-30T12:25:15;101780.00;;;11.00
45850;BMP180;10739;52.198;20.908;2024-01-30T12:27:47;101785.00;;;11.30
45850;BMP180;10739;52.198;20.908;2024-01-30T12:30:18;101775.00;;;11.20
45850;BMP180;10739;52.198;20.908;2024-01-30T12:32:47;101783.00;;;11.30
45850;BMP180;10739;52.198;20.908;2024-01-30T12:35:17;101774.00;;;11.50
45850;BMP180;10739;52.198;20.908;2024-01-30T12:37:45;101776.00;;;11.20
45850;BMP180;10739;52.198;20.908;2024-01-30T12:40:14;101765.00;;;11.10
45850;BMP180;10739;52.198;20.908;2024-01-30T12:42:47;101762.00;;;11.40
45850;BMP180;10739;52.198;20.908;2024-01-30T12:45:16;101758.00;;;10.80
45850;BMP180;10739;52.198;20.908;2024-01-30T12:47:46;101764.00;;;11.10
45850;BMP180;10739;52.198;20.908;2024-01-30T12:50:12;101760.00;;;11.60
45850;BMP180;10739;52.198;20.908;2024-01-30T12:52:43;101753.00;;;11.60
45850;BMP180;10739;52.198;20.908;2024-01-30T12:55:09;101757.00;;;11.40
45850;BMP180;10739;52.198;20.908;2024-01-30T12:57:35;101763.00;;;11.10
45850;BMP180;10739;52.198;20.908;2024-01-30T13:00:01;101754.00;;;11.30
45850;BMP180;10739;52.198;20.908;2024-01-30T13:02:28;101763.00;;;11.70
45850;BMP180;10739;52.198;20.908;2024-01-30T13:05:00;101761.00;;;11.70
45850;BMP180;10739;52.198;20.908;2024-01-30T13:07:27;101756.00;;;11.70
45850;BMP180;10739;52.198;20.908;2024-01-30T13:09:53;101753.00;;;11.60
45850;BMP180;10739;52.198;20.908;2024-01-30T13:12:19;101754.00;;;11.50
45850;BMP180;10739;52.198;20.908;2024-01-30T13:14:45;101747.00;;;11.50
45850;BMP180;10739;52.198;20.908;2024-01-30T13:17:11;101759.00;;;11.60
45850;BMP180;10739;52.198;20.908;2024-01-30T13:19:38;101759.00;;;11.40
45850;BMP180;10739;52.198;20.908;2024-01-30T13:22:06;101759.00;;;11.50
45850;BMP180;10739;52.198;20.908;2024-01-30T13:24:33;101756.00;;;11.50
45850;BMP180;10739;52.198;20.908;2024-01-30T13:26:59;101764.00;;;11.40
45850;BMP180;10739;52.198;20.908;2024-01-30T13:29:25;101760.00;;;11.20
45850;BMP180;10739;52.198;20.908;2024-01-30T13:31:52;101756.00;;;11.30
45850;BMP180;10739;52.198;20.908;2024-01-30T13:34:18;101750.00;;;11.90
45850;BMP180;10739;52.198;20.908;2024-01-30T13:36:44;101755.00;;;11.30
45850;BMP180;10739;52.198;20.908;2024-01-30T13:39:11;101756.00;;;11.50
45850;BMP180;10739;52.198;20.908;2024-01-30T13:41:38;101757.00;;;11.70
45850;BMP180;10739;52.198;20.908;2024-01-30T13:44:04;101753.00;;;11.40
45850;BMP180;10739;52.198;20.908;2024-01-30T13:46:31;101761.00;;;11.10
45850;BMP180;10739;52.198;20.908;2024-01-30T13:48:57;101760.00;;;10.90
45850;BMP180;10739;52.198;20.908;2024-01-30T13:51:23;101762.00;;;11.00
45850;BMP180;10739;52.198;20.908;2024-01-30T13:53:53;101758.00;;;11.10
45850;BMP180;10739;52.198;20.908;2024-01-30T13:56:22;101755.00;;;11.20
45850;BMP180;10739;52.198;20.908;2024-01-30T13:58:50;101745.00;;;11.30